Archival Weather

Reid-Hillview of Santa Clara County

San Jose, California (KRHV)

Report from: Saturday, December 2, 2023 9:47 AM PST
Current time: Wednesday, April 24, 2024 11:57 AM PDT

Current weather – Weather history – Daily summaries
Weather forecast

Temperature16.0°C (60.8°F)
Dew point8.0°C (46.4°F)
Winds 6 kts (3.1 m/s, 6.9 mph) Southwest (220°)
Visibility10 mi. (16.1 km)
Clouds Scattered clouds 2,500 ft. (762 m)
Altimeter30.28 in.Hg (1025 mB)
Relative humidity59 %
Density altitude-136 ft. (-42 m)
Flight conditions Visual Meteorological Conditions
Raw dataKRHV 021747Z 22006KT 10SM SCT025 16/08 A3028
An error has occurred. This application may no longer respond until reloaded. Reload 🗙